Time;durP1;ratioP1;P1;durP2;ratioP2;P2;SDS_P1;SDS_P2;PMS_P1;PMS_P2;Temp;Humidity;BMP_temperature;BMP_pressure;BME280_temperature;BME280_humidity;BME280_pressure;Samples;Min_cycle;Max_cycle;Signal;HPM_P1;HPM_P2
2021/09/02 00:02:00;;;;;;;8.80;7.55;;;16.40;99.90;;;;;;6251618;22;20004;-90
2021/09/02 00:04:27;;;;;;;8.73;6.65;;;16.40;99.90;;;;;;6252162;22;20036;-90
2021/09/02 00:06:54;;;;;;;8.48;6.80;;;16.40;99.90;;;;;;6251504;22;20008;-90
2021/09/02 00:09:20;;;;;;;13.32;7.68;;;16.40;99.90;;;;;;6251965;22;20007;-89
2021/09/02 00:11:45;;;;;;;10.63;7.60;;;16.40;99.90;;;;;;6251825;22;20004;-91
2021/09/02 00:14:21;;;;;;;7.82;6.63;;;16.40;99.90;;;;;;6251991;22;20022;-90
2021/09/02 00:16:48;;;;;;;10.13;8.27;;;16.40;99.90;;;;;;6252237;22;19996;-90
2021/09/02 00:19:14;;;;;;;9.07;7.43;;;16.50;99.90;;;;;;6251981;22;20300;-89
2021/09/02 00:21:39;;;;;;;8.98;7.95;;;16.40;99.90;;;;;;6251924;22;20006;-90
2021/09/02 00:24:08;;;;;;;11.38;7.97;;;16.50;99.90;;;;;;6251711;22;20365;-90
2021/09/02 00:26:34;;;;;;;8.27;7.40;;;16.50;99.90;;;;;;6252022;22;20069;-89
2021/09/02 00:29:00;;;;;;;9.82;7.65;;;16.50;99.90;;;;;;6251413;22;20030;-90
2021/09/02 00:31:26;;;;;;;9.85;8.82;;;16.50;99.90;;;;;;6252141;22;20000;-90
2021/09/02 00:33:52;;;;;;;9.20;8.02;;;16.40;99.90;;;;;;6251948;22;20077;-90
2021/09/02 00:36:18;;;;;;;8.90;8.00;;;16.50;99.90;;;;;;6251466;22;20007;-89
2021/09/02 00:38:46;;;;;;;8.85;7.63;;;16.40;99.90;;;;;;6279124;22;20362;-90
2021/09/02 00:41:11;;;;;;;8.95;7.82;;;16.40;99.90;;;;;;6251699;22;19996;-90
2021/09/02 00:43:39;;;;;;;11.10;9.05;;;16.40;99.90;;;;;;6251878;22;20014;-90
2021/09/02 00:46:08;;;;;;;9.25;8.35;;;16.30;99.90;;;;;;6251206;22;19996;-89
2021/09/02 00:48:35;;;;;;;9.40;8.05;;;16.30;99.90;;;;;;6252001;22;20018;-90
2021/09/02 00:51:01;;;;;;;8.27;7.43;;;16.30;99.90;;;;;;6251285;22;20047;-89
2021/09/02 00:53:35;;;;;;;8.48;7.57;;;16.30;99.90;;;;;;6252175;22;19999;-90
2021/09/02 00:56:00;;;;;;;;;;;16.30;99.90;;;;;;6252250;22;20022;-90
2021/09/02 00:58:28;;;;;;;9.13;7.57;;;16.20;99.90;;;;;;6251763;22;19899;-90
2021/09/02 01:00:54;;;;;;;9.30;8.27;;;16.20;99.90;;;;;;6251774;22;20010;-89
2021/09/02 01:03:26;;;;;;;8.75;7.82;;;16.20;99.90;;;;;;6251984;22;20035;-90
2021/09/02 01:05:52;;;;;;;10.05;8.07;;;16.20;99.90;;;;;;6279929;22;20007;-90
2021/09/02 01:08:19;;;;;;;9.65;8.50;;;16.10;99.90;;;;;;6252638;22;20436;-90
2021/09/02 01:10:49;;;;;;;10.48;7.82;;;16.10;99.90;;;;;;6252830;22;20078;-91
2021/09/02 01:13:25;;;;;;;10.50;8.18;;;16.10;99.90;;;;;;6252178;22;20000;-90
2021/09/02 01:15:52;;;;;;;10.95;9.10;;;16.10;99.90;;;;;;6251545;22;20423;-90
2021/09/02 01:18:18;;;;;;;9.20;7.50;;;16.10;99.90;;;;;;6250885;22;20057;-90
2021/09/02 01:20:46;;;;;;;8.73;7.35;;;16.10;99.90;;;;;;6250961;22;20003;-90
2021/09/02 01:23:17;;;;;;;9.18;7.43;;;16.10;99.90;;;;;;6251580;22;20000;-90
2021/09/02 01:25:45;;;;;;;9.02;7.03;;;16.00;99.90;;;;;;6251477;22;20104;-90
2021/09/02 01:28:12;;;;;;;10.30;8.15;;;16.00;99.90;;;;;;6251281;22;20065;-90
2021/09/02 01:30:39;;;;;;;11.18;8.57;;;16.00;99.90;;;;;;6251359;22;20000;-90
2021/09/02 01:33:08;;;;;;;8.57;7.47;;;16.00;99.90;;;;;;6251351;22;20006;-90
2021/09/02 01:35:42;;;;;;;8.00;7.20;;;16.00;99.90;;;;;;6251294;22;20000;-90
2021/09/02 01:38:09;;;;;;;8.35;7.18;;;16.00;99.90;;;;;;6251296;22;20035;-90
2021/09/02 01:40:39;;;;;;;7.47;6.57;;;16.00;99.90;;;;;;6251246;22;20445;-90
2021/09/02 01:43:09;;;;;;;7.32;6.28;;;16.00;99.90;;;;;;6251113;22;20000;-90
2021/09/02 01:45:36;;;;;;;8.48;6.18;;;16.00;99.90;;;;;;6251206;22;20004;-90
2021/09/02 01:48:03;;;;;;;7.90;6.43;;;16.00;99.90;;;;;;6250898;22;20388;-89
2021/09/02 01:50:32;;;;;;;7.25;6.03;;;16.00;99.90;;;;;;6250421;22;20015;-90
2021/09/02 01:52:59;;;;;;;6.85;5.47;;;16.00;99.90;;;;;;6251111;22;19995;-90
2021/09/02 01:55:34;;;;;;;6.45;4.88;;;16.00;99.90;;;;;;6250957;22;20026;-90
2021/09/02 01:58:00;;;;;;;5.38;4.25;;;16.00;99.90;;;;;;6251095;22;20034;-90
2021/09/02 02:00:35;;;;;;;5.20;4.60;;;16.00;99.90;;;;;;6252753;22;20031;-91
2021/09/02 02:03:03;;;;;;;5.60;4.03;;;16.00;99.90;;;;;;6251246;22;20086;-89
2021/09/02 02:05:32;;;;;;;5.22;4.40;;;16.00;99.90;;;;;;6251402;22;20014;-90
2021/09/02 02:07:58;;;;;;;5.78;3.85;;;16.00;99.90;;;;;;6250898;22;20008;-90
2021/09/02 02:10:28;;;;;;;5.60;4.60;;;16.00;99.90;;;;;;6250876;22;20000;-90
2021/09/02 02:13:05;;;;;;;6.00;3.95;;;16.00;99.90;;;;;;6252011;22;20012;-90
2021/09/02 02:15:31;;;;;;;5.70;4.07;;;16.00;99.90;;;;;;6253184;22;20011;-90
2021/09/02 02:18:00;;;;;;;4.95;4.22;;;16.00;99.90;;;;;;6253140;22;19999;-90
2021/09/02 02:20:26;;;;;;;5.75;4.50;;;15.90;99.90;;;;;;6251736;22;20027;-90
2021/09/02 02:22:52;;;;;;;4.20;3.78;;;15.60;99.90;;;;;;6251625;22;20095;-90
2021/09/02 02:25:18;;;;;;;4.03;3.33;;;15.50;99.90;;;;;;6250923;22;19996;-90
2021/09/02 02:27:44;;;;;;;4.50;3.67;;;15.30;99.90;;;;;;6250918;22;20038;-90
2021/09/02 02:30:14;;;;;;;4.43;3.25;;;15.20;99.90;;;;;;6250764;22;20000;-90
2021/09/02 02:32:40;;;;;;;5.63;2.95;;;15.20;99.90;;;;;;6251164;22;20037;-90
2021/09/02 02:35:07;;;;;;;3.38;2.83;;;15.10;99.90;;;;;;6250582;22;20445;-90
2021/09/02 02:37:33;;;;;;;4.63;3.60;;;15.10;99.90;;;;;;6250689;22;20439;-90
2021/09/02 02:39:58;;;;;;;5.40;3.63;;;15.10;99.90;;;;;;6250244;22;20030;-90
2021/09/02 02:42:24;;;;;;;4.55;3.00;;;15.00;99.90;;;;;;6250067;22;20082;-90
2021/09/02 02:44:50;;;;;;;4.53;3.75;;;15.00;99.90;;;;;;6277813;22;19999;-90
2021/09/02 02:47:16;;;;;;;4.82;3.80;;;15.00;99.90;;;;;;6251292;22;20007;-90
2021/09/02 02:49:42;;;;;;;4.32;3.65;;;15.00;99.90;;;;;;6251732;22;20030;-90
2021/09/02 02:52:08;;;;;;;4.70;4.20;;;14.90;99.90;;;;;;6277425;22;20050;-90
2021/09/02 02:54:37;;;;;;;4.32;3.40;;;14.90;99.90;;;;;;6250142;22;20010;-90
2021/09/02 02:57:03;;;;;;;4.07;3.60;;;14.90;99.90;;;;;;6250512;22;20012;-89
2021/09/02 02:59:29;;;;;;;5.30;3.88;;;14.90;99.90;;;;;;6250487;22;20000;-90
2021/09/02 03:01:55;;;;;;;5.90;5.00;;;14.90;99.90;;;;;;6250358;22;20007;-89
2021/09/02 03:04:20;;;;;;;5.53;4.40;;;14.90;99.90;;;;;;6251536;22;20008;-89
2021/09/02 03:06:46;;;;;;;5.90;4.18;;;14.90;99.90;;;;;;6250318;22;20022;-90
2021/09/02 03:09:12;;;;;;;5.05;3.95;;;14.90;99.90;;;;;;6250294;22;20432;-90
2021/09/02 03:11:38;;;;;;;4.47;3.40;;;14.90;99.90;;;;;;6250444;22;20412;-89
2021/09/02 03:14:03;;;;;;;4.80;4.30;;;14.90;99.90;;;;;;6250247;22;20038;-90
2021/09/02 03:16:30;;;;;;;5.72;4.53;;;14.90;99.90;;;;;;6250273;22;20355;-90
2021/09/02 03:18:55;;;;;;;8.77;3.95;;;15.00;99.90;;;;;;6250880;22;20007;-89
2021/09/02 03:21:22;;;;;;;5.82;4.05;;;15.00;99.90;;;;;;6251200;22;20297;-89
2021/09/02 03:23:48;;;;;;;5.40;4.22;;;15.00;99.90;;;;;;6250018;22;20006;-90
2021/09/02 03:26:13;;;;;;;4.15;3.25;;;15.00;99.90;;;;;;6250576;22;20003;-90
2021/09/02 03:28:39;;;;;;;4.72;3.90;;;15.10;99.90;;;;;;6250337;22;20012;-89
2021/09/02 03:31:05;;;;;;;4.85;3.65;;;15.10;99.90;;;;;;6252289;22;20007;-89
2021/09/02 03:33:34;;;;;;;5.00;3.92;;;15.10;99.90;;;;;;6252810;22;20320;-90
2021/09/02 03:35:59;;;;;;;4.10;3.70;;;15.10;99.90;;;;;;6252661;22;20000;-89
2021/09/02 03:38:25;;;;;;;5.55;4.22;;;15.10;99.90;;;;;;6253302;22;20027;-89
2021/09/02 03:40:51;;;;;;;5.43;4.38;;;15.10;99.90;;;;;;6255204;22;20006;-89
2021/09/02 03:43:20;;;;;;;4.00;3.35;;;15.10;99.90;;;;;;6258040;22;20000;-91
2021/09/02 03:45:47;;;;;;;4.47;3.63;;;15.10;99.90;;;;;;6256153;22;20431;-90
2021/09/02 03:48:13;;;;;;;5.65;3.65;;;15.10;99.90;;;;;;6254202;22;20073;-89
2021/09/02 03:50:38;;;;;;;4.63;3.72;;;15.10;99.90;;;;;;6253067;22;20431;-89
2021/09/02 03:53:04;;;;;;;5.00;4.22;;;15.10;99.90;;;;;;6253657;22;20050;-89
2021/09/02 03:55:30;;;;;;;4.57;3.53;;;15.10;99.90;;;;;;6252719;22;20053;-89
2021/09/02 03:57:56;;;;;;;4.38;3.95;;;15.10;99.90;;;;;;6252433;22;20008;-90
2021/09/02 04:00:21;;;;;;;5.53;4.32;;;15.20;99.90;;;;;;6251842;22;19996;-90
2021/09/02 04:02:47;;;;;;;6.57;4.07;;;15.20;99.90;;;;;;6252811;22;20004;-89
2021/09/02 04:05:13;;;;;;;8.00;3.95;;;15.10;99.90;;;;;;6254058;22;20428;-90
2021/09/02 04:07:39;;;;;;;4.82;3.63;;;15.10;99.90;;;;;;6252220;22;20383;-89
2021/09/02 04:10:05;;;;;;;4.90;3.67;;;15.10;99.90;;;;;;6281199;22;20006;-90
2021/09/02 04:12:32;;;;;;;4.95;3.83;;;15.10;99.90;;;;;;6251943;22;20079;-90
2021/09/02 04:14:58;;;;;;;5.68;3.83;;;15.10;99.90;;;;;;6252060;22;19999;-90
2021/09/02 04:17:24;;;;;;;4.78;3.47;;;15.10;99.90;;;;;;6254893;22;20024;-90
2021/09/02 04:19:50;;;;;;;4.85;3.78;;;15.10;99.90;;;;;;6251744;22;19996;-90
2021/09/02 04:22:16;;;;;;;5.85;3.80;;;15.10;99.90;;;;;;6251848;22;20004;-90
2021/09/02 04:24:46;;;;;;;5.85;3.95;;;15.10;99.90;;;;;;6252573;22;19996;-89
2021/09/02 04:27:14;;;;;;;6.13;4.05;;;15.00;99.90;;;;;;6253939;22;20016;-90
2021/09/02 04:29:41;;;;;;;8.30;4.75;;;15.00;99.90;;;;;;6279102;22;20022;-90
2021/09/02 04:32:09;;;;;;;6.78;4.32;;;15.00;99.90;;;;;;6254489;22;20003;-89
2021/09/02 04:34:37;;;;;;;5.95;4.60;;;14.90;99.90;;;;;;6252398;22;20086;-90
2021/09/02 04:37:03;;;;;;;5.47;4.20;;;15.00;99.90;;;;;;6252647;22;20011;-89
2021/09/02 04:39:32;;;;;;;5.45;4.38;;;14.90;99.90;;;;;;6252762;22;20442;-90
2021/09/02 04:41:58;;;;;;;7.57;4.93;;;15.00;99.90;;;;;;6252171;22;20026;-90
2021/09/02 04:44:24;;;;;;;6.80;4.90;;;15.00;99.90;;;;;;6252241;22;19999;-90
2021/09/02 04:46:50;;;;;;;9.23;5.80;;;15.00;99.90;;;;;;6251798;22;19996;-89
2021/09/02 04:49:15;;;;;;;9.32;5.50;;;14.90;99.90;;;;;;6253104;22;20003;-90
2021/09/02 04:51:43;;;;;;;7.22;5.13;;;14.90;99.90;;;;;;6279854;22;20034;-89
2021/09/02 04:54:11;;;;;;;8.32;5.03;;;14.90;99.90;;;;;;6251686;22;20083;-90
2021/09/02 04:56:37;;;;;;;8.63;5.50;;;14.90;99.90;;;;;;6259771;22;20000;-89
2021/09/02 04:59:03;;;;;;;8.07;5.10;;;14.90;99.90;;;;;;6259929;22;20315;-89
2021/09/02 05:01:29;;;;;;;8.38;5.65;;;14.90;99.90;;;;;;6257632;22;20007;-89
2021/09/02 05:03:55;;;;;;;8.68;5.75;;;14.90;99.90;;;;;;6253171;22;20000;-89
2021/09/02 05:06:20;;;;;;;8.82;6.47;;;14.90;99.90;;;;;;6251440;22;20324;-89
2021/09/02 05:08:46;;;;;;;7.57;6.05;;;14.80;99.90;;;;;;6251887;22;20058;-89
2021/09/02 05:11:12;;;;;;;11.88;6.60;;;14.80;99.90;;;;;;6252240;22;20004;-89
2021/09/02 05:13:38;;;;;;;9.23;5.43;;;14.90;99.90;;;;;;6252077;22;20086;-89
2021/09/02 05:16:04;;;;;;;7.60;6.03;;;14.90;99.90;;;;;;6278769;22;19992;-89
2021/09/02 05:18:32;;;;;;;8.68;6.88;;;15.00;99.90;;;;;;6253062;22;20014;-90
2021/09/02 05:20:58;;;;;;;7.53;6.20;;;15.10;99.90;;;;;;6278874;22;20000;-89
2021/09/02 05:23:24;;;;;;;9.75;6.70;;;15.10;99.90;;;;;;6252469;22;20366;-89
2021/09/02 05:25:50;;;;;;;8.75;6.30;;;15.20;99.90;;;;;;6254284;22;19996;-89
2021/09/02 05:28:15;;;;;;;9.57;6.10;;;15.20;99.90;;;;;;6253615;22;20014;-89
2021/09/02 05:30:44;;;;;;;7.95;6.05;;;15.20;99.90;;;;;;6252393;22;19999;-89
2021/09/02 05:33:12;;;;;;;9.15;6.55;;;15.20;99.90;;;;;;6279760;22;20003;-89
2021/09/02 05:35:38;;;;;;;9.23;6.32;;;15.30;99.90;;;;;;6251780;22;20008;-89
2021/09/02 05:38:03;;;;;;;7.95;5.80;;;15.30;99.90;;;;;;6251961;22;20419;-90
2021/09/02 05:40:29;;;;;;;8.48;6.60;;;15.30;99.90;;;;;;6279320;22;20315;-90
2021/09/02 05:43:08;;;;;;;9.13;6.63;;;15.30;99.90;;;;;;6265983;22;20004;-90
2021/09/02 05:45:37;;;;;;;13.43;6.45;;;15.40;99.90;;;;;;6273129;22;19984;-91
2021/09/02 05:48:07;;;;;;;10.32;7.03;;;15.40;99.90;;;;;;6272559;22;20450;-89
2021/09/02 05:50:33;;;;;;;7.65;5.90;;;15.40;99.90;;;;;;6272588;22;20015;-90
2021/09/02 05:53:06;;;;;;;7.97;6.25;;;15.40;99.90;;;;;;6273291;22;20011;-90
2021/09/02 05:55:36;;;;;;;7.80;6.15;;;15.50;99.90;;;;;;6271580;22;20000;-90
2021/09/02 05:58:02;;;;;;;7.75;6.13;;;15.50;99.90;;;;;;6295209;22;20000;-90
2021/09/02 06:00:28;;;;;;;8.50;6.38;;;15.60;99.90;;;;;;6255291;22;20454;-90
2021/09/02 06:02:54;;;;;;;8.05;6.60;;;15.70;99.90;;;;;;6256255;22;20077;-91
2021/09/02 06:05:24;;;;;;;8.27;6.68;;;15.80;99.90;;;;;;6253140;22;20439;-91
2021/09/02 06:07:58;;;;;;;8.18;6.60;;;16.00;99.90;;;;;;6253414;22;20423;-90
2021/09/02 06:10:33;;;;;;;6.97;6.07;;;16.10;99.90;;;;;;6253356;22;20000;-90
2021/09/02 06:13:02;;;;;;;10.75;7.53;;;16.30;99.90;;;;;;6252968;22;20080;-90
2021/09/02 06:15:28;;;;;;;8.60;7.07;;;16.40;98.20;;;;;;6251942;22;20049;-90
2021/09/02 06:17:53;;;;;;;9.18;6.88;;;16.40;98.00;;;;;;6251983;22;20106;-90
2021/09/02 06:20:29;;;;;;;7.20;6.13;;;16.30;98.10;;;;;;6277593;22;20299;-91
2021/09/02 06:23:03;;;;;;;8.68;7.20;;;16.30;98.20;;;;;;6252438;22;19996;-93
2021/09/02 06:25:32;;;;;;;8.95;7.68;;;16.30;98.10;;;;;;6251435;22;19996;-92
2021/09/02 06:27:58;;;;;;;8.10;7.00;;;16.20;97.60;;;;;;6251823;22;20374;-89
2021/09/02 06:30:24;;;;;;;7.18;6.47;;;16.20;97.80;;;;;;6249906;22;20082;-89
2021/09/02 06:32:49;;;;;;;8.27;6.95;;;16.20;98.10;;;;;;6250418;22;20082;-90
2021/09/02 06:35:15;;;;;;;7.78;6.97;;;16.20;98.40;;;;;;6249961;22;20000;-89
2021/09/02 06:37:41;;;;;;;8.88;7.13;;;16.30;99.00;;;;;;6250389;22;20503;-89
2021/09/02 06:40:07;;;;;;;8.68;7.57;;;16.40;99.10;;;;;;6249242;22;20000;-89
2021/09/02 06:42:33;;;;;;;7.90;6.75;;;16.40;99.20;;;;;;6249457;22;20003;-89
2021/09/02 06:44:58;;;;;;;8.52;7.63;;;16.60;99.60;;;;;;6249469;22;20003;-89
2021/09/02 06:47:24;;;;;;;11.30;7.55;;;16.80;99.10;;;;;;6276808;22;20404;-89
2021/09/02 06:49:50;;;;;;;9.20;7.50;;;17.00;99.30;;;;;;6249448;22;20007;-90
2021/09/02 06:52:16;;;;;;;9.23;8.10;;;17.20;98.10;;;;;;6249721;22;20020;-89
2021/09/02 06:54:41;;;;;;;7.90;6.85;;;17.40;97.00;;;;;;6249614;22;20019;-89
2021/09/02 06:57:09;;;;;;;8.90;7.55;;;17.40;96.20;;;;;;6249726;22;20399;-88
2021/09/02 06:59:35;;;;;;;9.10;6.95;;;17.50;95.50;;;;;;6249529;22;20065;-88
2021/09/02 07:02:01;;;;;;;8.27;7.00;;;17.60;95.00;;;;;;6248595;22;20374;-89
2021/09/02 07:04:26;;;;;;;8.85;6.60;;;17.70;94.90;;;;;;6250281;22;20000;-89
2021/09/02 07:06:55;;;;;;;8.38;6.30;;;17.80;95.30;;;;;;6251043;22;20022;-88
2021/09/02 07:09:20;;;;;;;6.90;6.20;;;17.80;95.50;;;;;;6251221;22;20054;-89
2021/09/02 07:11:46;;;;;;;7.60;6.75;;;17.80;94.40;;;;;;6278227;22;20411;-89
2021/09/02 07:14:12;;;;;;;9.25;6.72;;;17.60;93.50;;;;;;6251210;22;20242;-89
2021/09/02 07:16:38;;;;;;;7.63;6.82;;;17.40;93.50;;;;;;6252022;22;20015;-89
2021/09/02 07:19:04;;;;;;;8.95;6.93;;;17.30;93.60;;;;;;6251068;22;20095;-89
2021/09/02 07:21:39;;;;;;;7.40;6.40;;;17.10;94.00;;;;;;6251284;22;20007;-89
2021/09/02 07:24:07;;;;;;;6.78;6.07;;;17.00;94.70;;;;;;6250593;22;20061;-89
2021/09/02 07:26:33;;;;;;;9.45;6.70;;;17.10;95.50;;;;;;6251510;22;20507;-89
2021/09/02 07:28:59;;;;;;;6.90;5.72;;;17.20;95.90;;;;;;6250445;22;20011;-88
2021/09/02 07:31:24;;;;;;;7.15;6.13;;;17.40;95.60;;;;;;6251202;22;20026;-90
2021/09/02 07:33:53;;;;;;;7.22;6.18;;;17.60;94.70;;;;;;6251146;22;19999;-90
2021/09/02 07:36:26;;;;;;;7.97;6.45;;;17.80;93.70;;;;;;6250803;22;20007;-90
2021/09/02 07:39:15;;;;;;;8.75;5.82;;;17.70;92.80;;;;;;6278737;22;20003;-90
2021/09/02 07:41:41;;;;;;;6.25;5.47;;;17.60;93.00;;;;;;6232698;22;20007;-90
2021/09/02 07:44:08;;;;;;;7.35;6.35;;;17.50;93.20;;;;;;6251050;22;20000;-90
2021/09/02 07:46:34;;;;;;;6.95;6.07;;;17.30;93.60;;;;;;6251528;22;19999;-89
2021/09/02 13:43:57;;;;;;;2.17;1.92;;;17.30;54.00;;;;;;6257471;22;20032;-91
2021/09/02 13:47:00;;;;;;;;;;;;;;;;;;;;;
2021/09/02 13:49:26;;;;;;;3.28;2.38;;;17.40;54.20;;;;;;6171159;23;20013;-93
2021/09/02 13:52:36;;;;;;;4.43;2.78;;;17.90;53.20;;;;;;6169411;23;20068;-93
2021/09/02 13:55:13;;;;;;;3.53;2.25;;;18.20;54.10;;;;;;6145896;23;20010;-94
2021/09/02 13:57:45;;;;;;;2.72;2.22;;;18.00;54.00;;;;;;6144169;23;20143;-93
2021/09/02 14:00:48;;;;;;;3.45;2.17;;;17.70;54.30;;;;;;6128752;23;20437;-92
2021/09/02 14:03:21;;;;;;;2.40;1.88;;;17.40;55.40;;;;;;6129127;23;20001;-92
2021/09/02 14:05:47;;;;;;;5.57;2.10;;;17.00;57.20;;;;;;6129382;23;20031;-94
2021/09/02 14:08:36;;;;;;;3.53;2.22;;;16.70;58.30;;;;;;6133191;23;20017;-95
2021/09/02 14:11:11;;;;;;;2.20;1.77;;;16.50;59.10;;;;;;6130735;23;20016;-93
2021/09/02 14:13:56;;;;;;;4.53;2.25;;;16.60;60.10;;;;;;6130588;23;20008;-94
2021/09/02 14:17:05;;;;;;;2.75;2.20;;;17.10;58.90;;;;;;6140541;23;19998;-94
2021/09/02 14:34:17;;;;;;;;;;;;;;;;;;;;;
2021/09/02 14:37:34;;;;;;;;;;;;;;;;;;;;;
2021/09/02 17:26:58;;;;;;;1.52;1.30;;;12.00;93.80;;;;;;6259384;22;20052;-95
2021/09/02 17:29:25;;;;;;;1.75;1.17;;;12.00;93.40;;;;;;6252266;23;20015;-94
2021/09/02 17:32:22;;;;;;;1.38;0.80;;;12.00;93.40;;;;;;6222403;23;20068;-92
2021/09/02 17:34:49;;;;;;;1.20;1.00;;;12.00;93.80;;;;;;6247137;23;20027;-93
2021/09/02 17:37:21;;;;;;;2.63;1.40;;;12.00;93.70;;;;;;6221841;23;20027;-94
2021/09/02 17:39:47;;;;;;;1.58;1.48;;;12.10;93.60;;;;;;6227840;23;20020;-94
2021/09/02 17:42:15;;;;;;;3.05;1.25;;;12.00;94.30;;;;;;6222642;23;20360;-93
2021/09/02 17:44:43;;;;;;;1.77;0.93;;;12.10;94.70;;;;;;6222580;23;20002;-96
2021/09/02 17:47:11;;;;;;;2.00;1.20;;;12.00;95.20;;;;;;6223947;23;20009;-93
2021/09/02 17:49:40;;;;;;;2.20;1.30;;;12.00;95.50;;;;;;6223702;23;20008;-94
2021/09/02 17:52:11;;;;;;;1.95;1.27;;;12.00;95.80;;;;;;6225521;23;20008;-93
2021/09/02 17:54:49;;;;;;;1.20;1.10;;;12.00;96.20;;;;;;6222388;23;20007;-92
2021/09/02 17:57:20;;;;;;;2.80;1.52;;;12.00;96.00;;;;;;6173833;23;20004;-96
2021/09/02 17:59:48;;;;;;;1.58;1.13;;;12.00;96.20;;;;;;6221775;23;20003;-95
2021/09/02 18:02:14;;;;;;;2.17;1.10;;;12.10;96.70;;;;;;6225138;23;20058;-95
2021/09/02 18:04:40;;;;;;;2.85;1.27;;;12.10;96.70;;;;;;6248434;23;20016;-95
2021/09/02 18:07:06;;;;;;;2.65;1.33;;;12.10;96.50;;;;;;6222191;23;20000;-95
2021/09/02 18:10:09;;;;;;;2.55;1.70;;;12.10;96.40;;;;;;6223880;23;20030;-93
2021/09/02 18:13:08;;;;;;;1.27;1.15;;;12.10;95.40;;;;;;6223578;23;20000;-95
2021/09/02 18:15:34;;;;;;;1.92;1.40;;;12.20;95.70;;;;;;6223790;23;20023;-94
2021/09/02 18:21:26;;;;;;;2.08;1.20;;;12.30;95.40;;;;;;6259699;23;20030;-94
2021/09/02 18:23:52;;;;;;;3.47;1.75;;;12.30;96.40;;;;;;6242146;23;20019;-94
2021/09/02 18:26:18;;;;;;;3.22;1.40;;;12.40;96.40;;;;;;6244415;23;20032;-93
2021/09/02 18:28:44;;;;;;;1.80;1.45;;;12.40;96.00;;;;;;6272080;23;20040;-94
2021/09/02 18:31:10;;;;;;;1.60;1.40;;;12.50;95.20;;;;;;6241494;23;20011;-95
2021/09/02 18:33:41;;;;;;;1.48;1.30;;;12.50;94.40;;;;;;6241760;23;20022;-95
2021/09/02 18:36:08;;;;;;;1.65;1.23;;;12.60;94.10;;;;;;6240676;23;20007;-94
2021/09/02 18:38:35;;;;;;;1.65;1.00;;;12.60;93.70;;;;;;6226670;23;20008;-95
2021/09/02 18:41:06;;;;;;;0.88;0.88;;;12.70;94.10;;;;;;6227628;23;20011;-93
2021/09/02 18:43:53;;;;;;;1.80;1.20;;;12.60;93.10;;;;;;6226284;23;20007;-94
2021/09/02 18:46:20;;;;;;;1.63;1.00;;;12.60;93.20;;;;;;6196080;23;20050;-95
2021/09/02 18:48:47;;;;;;;1.10;0.93;;;12.60;93.50;;;;;;6193538;23;20008;-94
2021/09/02 18:51:13;;;;;;;0.93;0.93;;;12.70;93.60;;;;;;6195379;23;20016;-94
2021/09/02 18:53:39;;;;;;;1.60;1.15;;;12.70;93.80;;;;;;6194194;23;20318;-95
2021/09/02 18:56:05;;;;;;;2.55;1.35;;;12.60;93.50;;;;;;6194012;23;20000;-95
2021/09/02 18:58:31;;;;;;;1.10;0.93;;;12.60;93.20;;;;;;6193639;23;20424;-95
2021/09/02 19:01:02;;;;;;;1.42;1.33;;;12.60;93.20;;;;;;6193631;23;20008;-95
2021/09/02 19:03:36;;;;;;;1.15;0.90;;;12.60;92.30;;;;;;6192455;23;20008;-94
2021/09/02 19:06:04;;;;;;;1.40;1.02;;;12.60;92.50;;;;;;6192150;23;20005;-95
2021/09/02 19:08:33;;;;;;;1.00;1.00;;;12.60;92.00;;;;;;6194738;23;20031;-95
2021/09/02 19:11:03;;;;;;;1.48;1.15;;;12.60;92.10;;;;;;6191854;23;20005;-96
2021/09/02 19:13:29;;;;;;;2.90;1.27;;;12.60;91.60;;;;;;6193224;23;20435;-95
2021/09/02 19:15:56;;;;;;;1.20;0.95;;;12.60;92.40;;;;;;6192148;23;20000;-95
2021/09/02 19:18:22;;;;;;;1.85;1.35;;;12.60;91.90;;;;;;6191723;23;20005;-94
2021/09/02 19:20:50;;;;;;;1.00;0.90;;;12.60;92.00;;;;;;6191267;23;20008;-95
2021/09/02 19:23:19;;;;;;;1.27;1.17;;;12.60;92.10;;;;;;6191890;23;20020;-96
2021/09/02 19:25:49;;;;;;;2.20;0.95;;;12.60;91.70;;;;;;6193742;23;20094;-96
2021/09/02 19:28:20;;;;;;;2.53;1.42;;;12.70;91.80;;;;;;6192339;23;20001;-96
2021/09/02 19:30:48;;;;;;;2.25;1.35;;;12.70;91.40;;;;;;6191520;23;20135;-96
2021/09/02 19:33:15;;;;;;;1.42;1.00;;;12.70;91.90;;;;;;6193149;23;20486;-95
2021/09/02 19:35:44;;;;;;;2.30;1.27;;;12.70;91.30;;;;;;6191276;23;20000;-94
2021/09/02 19:38:11;;;;;;;1.13;1.02;;;12.70;91.60;;;;;;6191920;23;20005;-96
2021/09/02 19:40:37;;;;;;;1.35;1.20;;;12.80;91.40;;;;;;6192690;23;20085;-96
2021/09/02 19:43:04;;;;;;;6.78;1.38;;;12.80;91.30;;;;;;6191829;23;20083;-96
2021/09/02 19:45:31;;;;;;;1.40;1.08;;;12.70;91.00;;;;;;6193679;23;19997;-96
2021/09/02 19:47:57;;;;;;;1.15;1.05;;;12.70;91.30;;;;;;6191523;23;20004;-95
2021/09/02 19:50:24;;;;;;;5.35;1.42;;;12.70;91.50;;;;;;6191728;23;20012;-95
2021/09/02 19:52:51;;;;;;;1.25;0.93;;;12.60;91.20;;;;;;6191235;23;20088;-94
2021/09/02 19:55:18;;;;;;;2.90;1.20;;;12.60;91.60;;;;;;6218881;23;20000;-95
2021/09/02 19:57:50;;;;;;;2.40;1.67;;;12.60;91.20;;;;;;6190747;23;20005;-95
2021/09/02 20:00:19;;;;;;;1.65;1.13;;;12.60;91.00;;;;;;6192939;23;20004;-94
2021/09/02 20:03:34;;;;;;;2.03;1.40;;;12.60;91.20;;;;;;6192778;23;20007;-95
2021/09/02 20:06:13;;;;;;;3.38;1.70;;;12.60;90.70;;;;;;6196452;23;20019;-94
2021/09/02 20:08:40;;;;;;;2.22;1.50;;;12.50;91.40;;;;;;6197517;23;20012;-93
2021/09/02 20:11:06;;;;;;;1.17;1.00;;;12.50;91.20;;;;;;6191966;23;20008;-95
2021/09/02 20:13:35;;;;;;;1.50;1.15;;;12.60;91.10;;;;;;6193783;23;20051;-96
2021/09/02 20:16:03;;;;;;;1.85;1.20;;;12.60;91.20;;;;;;6220109;23;20020;-95
2021/09/02 20:18:29;;;;;;;1.35;1.20;;;12.60;90.80;;;;;;6194419;23;20005;-95
2021/09/02 20:20:57;;;;;;;1.98;1.27;;;12.60;90.90;;;;;;6194523;23;20004;-95
2021/09/02 20:23:23;;;;;;;1.33;1.23;;;12.60;91.00;;;;;;6193972;23;20016;-96
2021/09/02 20:25:50;;;;;;;1.02;0.95;;;12.60;90.90;;;;;;6193226;23;20016;-94
2021/09/02 20:28:16;;;;;;;1.05;0.95;;;12.50;91.30;;;;;;6193421;23;20028;-95
2021/09/02 20:30:45;;;;;;;2.05;1.17;;;12.50;91.40;;;;;;6194909;23;20031;-94
2021/09/02 20:33:11;;;;;;;2.88;1.33;;;12.50;91.50;;;;;;6193944;23;20356;-95
2021/09/02 20:35:38;;;;;;;1.65;1.30;;;12.50;91.50;;;;;;6193874;23;20331;-95
2021/09/02 20:38:11;;;;;;;1.00;0.88;;;12.50;91.30;;;;;;6194080;23;20413;-95
2021/09/02 20:40:53;;;;;;;4.75;1.00;;;12.50;91.30;;;;;;6194052;23;20028;-95
2021/09/02 20:43:44;;;;;;;2.08;1.38;;;12.50;91.30;;;;;;6195349;23;20000;-95
2021/09/02 20:46:12;;;;;;;1.45;1.10;;;12.50;91.30;;;;;;6194123;23;20083;-95
2021/09/02 20:48:43;;;;;;;2.15;1.50;;;12.50;91.40;;;;;;6193339;23;20035;-96
2021/09/02 20:51:11;;;;;;;1.90;1.20;;;12.50;90.90;;;;;;6193536;23;20011;-96
2021/09/02 20:53:39;;;;;;;0.75;0.73;;;12.50;90.90;;;;;;6193136;23;20004;-95
2021/09/02 20:56:05;;;;;;;1.42;1.05;;;12.50;91.00;;;;;;6193449;23;20001;-94
2021/09/02 20:58:32;;;;;;;1.27;1.17;;;12.40;91.00;;;;;;6193982;23;20009;-95
2021/09/02 21:00:58;;;;;;;0.93;0.88;;;12.40;91.20;;;;;;6220552;23;20091;-95
2021/09/02 21:03:27;;;;;;;1.63;1.20;;;12.40;91.20;;;;;;6195012;23;20009;-95
2021/09/02 21:05:55;;;;;;;3.28;1.35;;;12.40;91.20;;;;;;6220584;23;20011;-96
2021/09/02 21:08:21;;;;;;;1.60;1.35;;;12.40;91.30;;;;;;6194295;23;20000;-95
2021/09/02 21:10:49;;;;;;;1.63;1.13;;;12.40;91.30;;;;;;6195467;23;20035;-95
2021/09/02 21:13:20;;;;;;;1.55;0.90;;;12.40;91.20;;;;;;6193838;23;20051;-95
2021/09/02 21:15:47;;;;;;;1.90;1.20;;;12.40;91.10;;;;;;6193704;23;20007;-95
2021/09/02 21:18:13;;;;;;;1.30;1.20;;;12.40;91.00;;;;;;6193731;23;20009;-95
2021/09/02 21:20:51;;;;;;;1.90;1.33;;;12.40;91.00;;;;;;6193150;23;20005;-94
2021/09/02 21:23:18;;;;;;;1.20;1.05;;;12.40;91.00;;;;;;6196420;23;20001;-95
2021/09/02 21:25:44;;;;;;;1.85;1.23;;;12.30;91.10;;;;;;6193013;23;20073;-95
2021/09/02 21:28:13;;;;;;;2.45;1.40;;;12.30;91.10;;;;;;6219787;23;20035;-95
2021/09/02 21:31:04;;;;;;;1.65;1.40;;;12.30;91.50;;;;;;6193043;23;20004;-94
2021/09/02 21:33:50;;;;;;;1.38;1.17;;;12.30;91.40;;;;;;6193096;23;19997;-95
2021/09/02 21:36:20;;;;;;;1.02;1.00;;;12.30;91.40;;;;;;6219302;23;20032;-95
2021/09/02 21:38:47;;;;;;;1.35;1.17;;;12.30;91.40;;;;;;6191891;23;20015;-95
2021/09/02 21:41:14;;;;;;;1.38;1.17;;;12.30;91.50;;;;;;6193656;23;20432;-95
2021/09/02 21:43:58;;;;;;;3.08;1.27;;;12.30;91.50;;;;;;6193849;23;20462;-95
2021/09/02 21:46:27;;;;;;;3.13;1.30;;;12.30;91.50;;;;;;6194008;23;20092;-95
2021/09/02 21:48:54;;;;;;;1.08;1.00;;;12.20;91.50;;;;;;6193236;23;20009;-95
2021/09/02 21:51:20;;;;;;;1.00;0.95;;;12.20;91.60;;;;;;6197196;23;20043;-95
2021/09/02 21:53:48;;;;;;;2.00;1.40;;;12.20;91.90;;;;;;6208062;23;19985;-96
2021/09/02 21:56:15;;;;;;;1.92;1.40;;;12.20;91.90;;;;;;6215593;23;20031;-95
2021/09/02 21:58:43;;;;;;;2.05;1.10;;;12.10;91.90;;;;;;6203783;23;20009;-95
2021/09/02 22:01:08;;;;;;;2.15;1.20;;;12.20;91.90;;;;;;6195426;23;19997;-94